Terminal Aerodrome Forecast
Issued by NWS

Current Version | Previous Version | Text Only | Print | Product List | Glossary Off
Versions: 1 2 3 4 5 6 7 8 9 10 11 12 13 14 15 16 17 18 19 20 21 22 23 24 25 26 27 28

253
FTUS41 KPBZ 132008 AAC
TAFHLG
TAF AMD
KHLG 132008Z 1320/1418 22008KT 1 1/2SM -SN OVC015
      TEMPO 1320/1322 1/2SM SN OVC006
     FM132200 19008KT 3SM -SN OVC025
     FM140600 23010KT 2SM -SHSN OVC020
     FM141200 31007KT P6SM BKN015=

USA.gov is the U.S. government's official web portal to all federal, state and local government web resources and services.